Time;durP1;ratioP1;P1;durP2;ratioP2;P2;SDS_P1;SDS_P2;PMS_P1;PMS_P2;Temp;Humidity;BMP_temperature;BMP_pressure;BME280_temperature;BME280_humidity;BME280_pressure;Samples;Min_cycle;Max_cycle;Signal;HPM_P1;HPM_P2
2023/05/27 00:01:53;;;;;;;6.95;5.82;;;;;;;15.63;64.38;93959.97;4951472;28;20453;-72
2023/05/27 00:04:18;;;;;;;9.70;7.95;;;;;;;14.39;69.50;93962.28;4949004;28;20095;-70
2023/05/27 00:06:43;;;;;;;10.68;8.85;;;;;;;13.53;72.95;93978.41;4950577;28;20047;-71
2023/05/27 00:09:09;;;;;;;13.05;10.35;;;;;;;13.84;73.46;93983.34;4947896;28;20069;-72
2023/05/27 00:11:35;;;;;;;18.20;10.20;;;;;;;13.99;72.74;93972.00;4949325;28;20356;-72
2023/05/27 00:14:00;;;;;;;17.63;10.73;;;;;;;14.64;70.67;93973.84;4949389;28;20092;-70
2023/05/27 00:16:25;;;;;;;14.18;10.90;;;;;;;14.99;69.59;93979.50;4950186;28;20516;-71
2023/05/27 00:18:52;;;;;;;12.77;9.80;;;;;;;15.24;68.67;93978.38;4949790;28;20553;-72
2023/05/27 00:21:18;;;;;;;17.92;10.50;;;;;;;15.36;67.83;93972.97;4950659;28;20023;-70
2023/05/27 00:23:47;;;;;;;17.27;11.55;;;;;;;15.36;68.15;93969.50;4944996;28;20838;-72
2023/05/27 00:26:12;;;;;;;15.43;11.93;;;;;;;15.23;68.31;93952.69;4950497;28;20049;-71
2023/05/27 00:28:38;;;;;;;15.60;11.80;;;;;;;15.23;68.88;93970.66;4950316;28;20924;-71
2023/05/27 00:31:03;;;;;;;12.23;10.52;;;;;;;15.38;67.91;93962.72;4947970;28;20448;-71
2023/05/27 00:33:29;;;;;;;11.18;9.65;;;;;;;15.45;67.51;93954.09;4950098;28;20078;-72
2023/05/27 00:35:54;;;;;;;8.20;7.35;;;;;;;15.29;67.49;93950.56;4955794;28;20051;-72
2023/05/27 00:38:20;;;;;;;11.98;8.57;;;;;;;15.32;67.68;93936.47;4947300;28;20669;-70
2023/05/27 00:40:46;;;;;;;10.10;8.63;;;;;;;15.46;67.19;93932.34;4948429;28;20043;-71
2023/05/27 00:43:11;;;;;;;8.57;6.88;;;;;;;15.37;67.33;93928.19;4947923;28;20047;-70
2023/05/27 00:45:37;;;;;;;5.15;4.65;;;;;;;15.34;66.30;93927.00;4949147;28;20062;-71
2023/05/27 00:48:03;;;;;;;6.43;3.72;;;;;;;15.21;66.39;93905.91;4949986;28;20045;-71
2023/05/27 00:50:29;;;;;;;2.35;1.58;;;;;;;15.34;63.89;93910.91;4948061;28;20050;-71
2023/05/27 00:52:55;;;;;;;1.83;1.60;;;;;;;15.17;63.44;93888.97;4950449;28;20378;-72
2023/05/27 00:55:22;;;;;;;2.28;1.63;;;;;;;15.28;64.27;93906.91;4950358;28;20031;-71
2023/05/27 00:57:48;;;;;;;1.73;1.48;;;;;;;15.09;64.55;93901.38;4957620;28;20050;-71
2023/05/27 01:00:14;;;;;;;1.60;1.15;;;;;;;15.40;62.86;93898.81;4951511;28;20416;-71
2023/05/27 01:02:40;;;;;;;1.42;1.20;;;;;;;14.75;64.50;93891.19;4947117;28;20125;-70
2023/05/27 01:05:10;;;;;;;1.40;1.30;;;;;;;15.11;64.51;93885.75;4951035;28;20401;-71
2023/05/27 01:07:49;;;;;;;1.52;1.40;;;;;;;15.03;64.80;93890.13;4946924;28;20853;-70
2023/05/27 01:10:26;;;;;;;1.55;1.40;;;;;;;15.00;62.96;93887.34;4947577;28;20166;-71
2023/05/27 01:13:06;;;;;;;6.28;1.70;;;;;;;15.09;63.52;93893.34;4954014;28;20556;-70
2023/05/27 01:15:32;;;;;;;1.90;1.65;;;;;;;15.29;63.88;93879.00;4946566;28;20370;-70
2023/05/27 01:18:01;;;;;;;1.80;1.38;;;;;;;15.53;63.52;93880.03;4950411;28;20110;-71
2023/05/27 01:20:29;;;;;;;2.05;1.48;;;;;;;15.49;63.71;93873.81;4946716;28;20039;-72
2023/05/27 01:22:57;;;;;;;2.45;1.65;;;;;;;15.52;63.66;93859.72;4949171;28;20042;-70
2023/05/27 01:25:23;;;;;;;2.20;1.77;;;;;;;15.68;64.10;93877.41;4947778;28;20046;-70
2023/05/27 01:27:49;;;;;;;2.47;1.63;;;;;;;15.67;64.51;93867.03;4949611;28;20038;-71
2023/05/27 01:30:15;;;;;;;1.83;1.67;;;;;;;15.73;64.49;93871.81;4951288;28;20033;-72
2023/05/27 01:32:48;;;;;;;2.45;1.88;;;;;;;15.73;64.43;93863.75;4947378;28;20035;-70
2023/05/27 01:35:52;;;;;;;2.10;1.75;;;;;;;15.90;63.84;93862.63;4945315;28;20676;-71
2023/05/27 01:38:20;;;;;;;2.65;2.10;;;;;;;15.79;64.26;93857.00;4963831;28;20035;-70
2023/05/27 01:40:48;;;;;;;7.20;2.42;;;;;;;15.73;64.67;93853.03;4962421;28;20390;-71
2023/05/27 01:43:15;;;;;;;2.40;2.00;;;;;;;15.80;63.77;93847.03;4949261;28;20062;-71
2023/05/27 01:45:41;;;;;;;3.38;2.17;;;;;;;15.73;63.43;93836.16;4950712;28;20027;-70
2023/05/27 01:48:09;;;;;;;2.47;2.28;;;;;;;15.76;63.90;93856.91;4943960;28;20070;-72
2023/05/27 01:50:35;;;;;;;4.57;2.35;;;;;;;15.72;63.59;93862.19;4953827;28;20035;-71
2023/05/27 01:53:00;;;;;;;2.92;1.80;;;;;;;15.69;63.54;93859.41;4947208;28;20796;-71
2023/05/27 01:55:26;;;;;;;1.90;1.70;;;;;;;15.70;63.17;93859.06;4948120;28;20039;-72
2023/05/27 01:57:53;;;;;;;2.95;1.38;;;;;;;15.63;62.90;93858.88;4947630;28;20045;-72
2023/05/27 02:00:18;;;;;;;2.22;1.70;;;;;;;15.66;62.95;93862.78;4949661;28;20135;-73
2023/05/27 02:02:44;;;;;;;1.60;1.50;;;;;;;15.70;61.90;93867.09;4945373;28;20050;-73
2023/05/27 02:05:10;;;;;;;1.88;1.73;;;;;;;15.62;62.35;93861.91;4948811;28;20066;-70
2023/05/27 02:07:36;;;;;;;3.30;1.77;;;;;;;15.60;62.47;93864.13;4948947;28;20536;-70
2023/05/27 02:10:02;;;;;;;2.13;1.92;;;;;;;15.51;62.82;93850.91;4949900;28;20038;-70
2023/05/27 02:12:27;;;;;;;2.40;1.80;;;;;;;15.54;62.82;93870.88;4948444;28;20040;-70
2023/05/27 02:14:52;;;;;;;2.67;2.22;;;;;;;15.58;62.25;93866.41;4948249;28;20039;-70
2023/05/27 02:17:18;;;;;;;2.67;2.15;;;;;;;15.55;62.12;93867.09;4948303;28;20039;-71
2023/05/27 02:19:43;;;;;;;2.33;2.13;;;;;;;15.56;62.22;93863.28;4950868;28;20130;-72
2023/05/27 02:22:09;;;;;;;3.70;2.28;;;;;;;15.45;61.72;93849.56;4947461;28;20469;-70
2023/05/27 02:24:35;;;;;;;4.55;2.22;;;;;;;15.45;61.96;93866.44;4947865;28;20118;-71
2023/05/27 02:27:01;;;;;;;1.83;1.73;;;;;;;15.36;62.29;93865.00;4949625;28;20110;-70
2023/05/27 02:29:26;;;;;;;3.22;2.58;;;;;;;15.20;62.68;93864.97;4952077;28;20490;-70
2023/05/27 02:31:52;;;;;;;2.85;2.58;;;;;;;15.14;62.98;93858.28;4951212;28;20066;-70
2023/05/27 02:34:17;;;;;;;3.85;2.35;;;;;;;15.07;62.95;93847.34;4954137;28;20786;-71
2023/05/27 02:36:43;;;;;;;6.18;2.88;;;;;;;15.13;63.15;93864.75;4950481;28;20114;-71
2023/05/27 02:39:08;;;;;;;4.85;2.58;;;;;;;15.11;63.48;93853.59;4952430;28;20142;-72
2023/05/27 02:41:34;;;;;;;2.67;2.40;;;;;;;15.24;63.43;93867.75;4949876;28;20039;-71
2023/05/27 02:43:59;;;;;;;3.33;2.75;;;;;;;15.26;63.39;93870.84;4953070;28;20071;-71
2023/05/27 02:46:25;;;;;;;3.08;2.78;;;;;;;15.23;63.80;93872.31;4951062;28;20033;-71
2023/05/27 02:48:50;;;;;;;3.00;2.42;;;;;;;15.22;63.98;93876.09;4952292;28;20178;-71
2023/05/27 02:51:15;;;;;;;3.88;2.42;;;;;;;15.19;63.33;93854.59;4952390;28;20062;-72
2023/05/27 02:53:41;;;;;;;2.33;1.98;;;;;;;15.18;64.03;93864.53;4951558;28;20038;-72
2023/05/27 02:56:07;;;;;;;5.22;2.50;;;;;;;15.07;64.26;93858.06;4950952;28;20142;-71
2023/05/27 02:58:32;;;;;;;4.78;2.45;;;;;;;15.17;64.68;93871.00;4951021;28;20505;-72
2023/05/27 03:00:58;;;;;;;3.75;2.70;;;;;;;15.20;64.25;93856.94;4950665;28;20058;-70
2023/05/27 03:03:23;;;;;;;3.30;2.95;;;;;;;15.28;64.10;93869.41;4953137;28;20047;-71
2023/05/27 03:05:49;;;;;;;3.25;2.58;;;;;;;15.27;64.06;93862.47;4949739;28;20039;-71
2023/05/27 03:08:15;;;;;;;3.13;2.53;;;;;;;15.31;64.07;93858.00;4954336;28;20033;-72
2023/05/27 03:10:40;;;;;;;3.42;2.80;;;;;;;15.31;64.14;93863.34;4950017;28;20406;-70
2023/05/27 03:13:06;;;;;;;2.70;2.50;;;;;;;15.29;63.96;93868.28;4950634;28;20077;-71
2023/05/27 03:15:31;;;;;;;3.20;2.90;;;;;;;15.28;64.52;93864.03;4948444;28;20030;-71
2023/05/27 03:17:57;;;;;;;3.90;2.75;;;;;;;15.25;64.86;93861.28;4952483;28;20036;-72
2023/05/27 03:20:23;;;;;;;4.32;2.33;;;;;;;15.33;64.87;93869.16;4950586;28;20035;-70
2023/05/27 03:22:48;;;;;;;4.65;2.38;;;;;;;15.38;64.77;93866.22;4961225;28;20405;-71
2023/05/27 03:25:14;;;;;;;2.90;2.60;;;;;;;15.34;64.78;93873.41;4949052;28;20066;-71
2023/05/27 03:27:40;;;;;;;2.63;2.30;;;;;;;15.50;64.98;93867.34;4951697;28;20117;-71
2023/05/27 03:30:07;;;;;;;2.50;2.30;;;;;;;15.57;64.62;93864.84;4951985;28;20031;-72
2023/05/27 03:32:33;;;;;;;2.47;2.28;;;;;;;15.39;64.78;93870.47;4950815;28;20067;-71
2023/05/27 03:34:58;;;;;;;3.20;2.50;;;;;;;15.35;65.50;93879.53;4951192;28;20135;-71
2023/05/27 03:37:24;;;;;;;2.92;2.55;;;;;;;15.28;66.15;93874.75;4951883;28;20081;-72
2023/05/27 03:39:49;;;;;;;2.65;2.35;;;;;;;15.38;65.76;93878.84;4949425;28;20395;-70
2023/05/27 03:42:15;;;;;;;2.65;2.35;;;;;;;15.32;65.48;93878.31;4953882;28;20148;-71
2023/05/27 03:44:40;;;;;;;2.17;1.98;;;;;;;15.33;65.09;93877.19;4950000;28;20414;-71
2023/05/27 03:47:06;;;;;;;4.50;2.50;;;;;;;15.28;64.87;93880.13;4967274;28;20039;-72
2023/05/27 03:49:31;;;;;;;6.60;2.70;;;;;;;15.35;65.03;93882.97;4952258;28;20428;-70
2023/05/27 03:51:57;;;;;;;3.58;2.20;;;;;;;15.36;65.41;93887.22;4949469;28;20555;-70
2023/05/27 03:54:22;;;;;;;2.40;2.20;;;;;;;15.41;65.63;93883.50;4950482;28;20022;-70
2023/05/27 03:56:47;;;;;;;3.65;2.60;;;;;;;15.43;66.00;93886.66;4948951;28;20043;-72
2023/05/27 03:59:14;;;;;;;3.75;2.38;;;;;;;15.49;65.09;93881.84;4950279;28;20553;-71
2023/05/27 04:01:40;;;;;;;2.20;2.00;;;;;;;15.64;64.41;93881.91;4949749;28;20658;-70
2023/05/27 04:04:06;;;;;;;3.58;2.97;;;;;;;15.64;64.51;93875.75;4949429;28;20493;-71
2023/05/27 04:06:33;;;;;;;3.50;2.58;;;;;;;15.55;64.80;93885.84;4948590;28;20027;-71
2023/05/27 04:08:58;;;;;;;3.65;2.22;;;;;;;15.45;64.79;93869.13;4950075;28;20039;-70
2023/05/27 04:11:26;;;;;;;3.60;2.47;;;;;;;15.48;64.93;93893.69;4948558;28;20401;-70
2023/05/27 04:13:52;;;;;;;3.95;2.75;;;;;;;15.43;65.38;93881.28;4948016;28;20045;-72
2023/05/27 04:16:17;;;;;;;3.50;2.50;;;;;;;15.46;65.37;93883.31;4965856;28;20034;-72
2023/05/27 04:18:48;;;;;;;3.28;2.53;;;;;;;15.49;65.60;93885.31;4949753;28;20026;-71
2023/05/27 04:21:23;;;;;;;3.25;2.95;;;;;;;15.55;65.30;93883.94;4948966;28;20410;-70
2023/05/27 04:23:49;;;;;;;4.40;2.88;;;;;;;15.60;64.69;93888.25;4957240;28;20054;-72
2023/05/27 04:26:14;;;;;;;3.05;2.65;;;;;;;15.66;64.53;93890.38;4949086;28;20159;-71
2023/05/27 04:28:40;;;;;;;7.50;2.17;;;;;;;15.73;65.05;93884.41;4945664;28;20134;-71
2023/05/27 04:31:12;;;;;;;2.90;2.58;;;;;;;15.63;65.13;93874.19;4949916;28;20433;-72
2023/05/27 04:33:39;;;;;;;2.95;2.65;;;;;;;15.84;65.16;93877.44;4948472;28;20031;-70
2023/05/27 04:36:05;;;;;;;4.28;2.08;;;;;;;15.75;63.92;93884.84;4946132;28;20032;-71
2023/05/27 04:38:31;;;;;;;3.55;2.40;;;;;;;15.88;62.63;93870.25;4942223;28;20091;-70
2023/05/27 04:40:57;;;;;;;3.60;2.47;;;;;;;15.88;63.96;93892.50;4949958;28;20461;-71
2023/05/27 04:43:23;;;;;;;2.90;2.58;;;;;;;15.94;64.46;93895.69;4946931;28;20046;-71
2023/05/27 04:45:48;;;;;;;2.80;2.53;;;;;;;15.90;63.33;93876.81;4951019;28;20039;-70
2023/05/27 04:48:15;;;;;;;2.30;2.10;;;;;;;15.91;63.25;93888.34;4946436;28;20039;-70
2023/05/27 04:50:41;;;;;;;3.72;2.13;;;;;;;16.02;63.45;93897.44;4948147;28;20557;-72
2023/05/27 04:53:07;;;;;;;5.03;2.78;;;;;;;15.94;63.44;93894.94;4950672;28;20400;-72
2023/05/27 04:55:33;;;;;;;7.43;2.50;;;;;;;15.77;64.01;93858.47;4963147;28;20031;-72
2023/05/27 04:57:58;;;;;;;2.55;2.35;;;;;;;15.93;63.98;93904.88;4950655;28;20080;-70
2023/05/27 05:00:36;;;;;;;2.30;2.10;;;;;;;16.09;63.48;93905.66;4950023;28;20393;-71
2023/05/27 05:03:02;;;;;;;4.78;2.53;;;;;;;16.22;62.24;93896.41;4950163;28;20031;-69
2023/05/27 05:05:28;;;;;;;4.35;1.88;;;;;;;16.05;62.59;93885.22;4947932;28;20059;-71
2023/05/27 05:07:54;;;;;;;3.03;2.00;;;;;;;16.13;62.54;93887.75;4950261;28;20130;-71
2023/05/27 05:10:19;;;;;;;2.17;1.85;;;;;;;16.04;62.14;93884.44;4946662;28;20046;-70
2023/05/27 05:12:45;;;;;;;4.25;2.50;;;;;;;16.10;63.58;93901.84;4949819;28;20125;-71
2023/05/27 05:15:10;;;;;;;2.10;1.90;;;;;;;16.15;63.65;93895.44;4960287;28;20055;-70
2023/05/27 05:17:35;;;;;;;3.20;2.20;;;;;;;16.10;63.68;93903.75;4948390;28;20039;-70
2023/05/27 05:20:01;;;;;;;2.33;2.13;;;;;;;16.26;62.67;93902.66;4946646;28;20113;-71
2023/05/27 05:22:28;;;;;;;3.78;2.28;;;;;;;16.04;63.06;93905.91;4948558;28;20038;-70
2023/05/27 05:24:53;;;;;;;3.00;2.10;;;;;;;16.10;62.72;93893.03;4949585;28;20050;-71
2023/05/27 05:27:19;;;;;;;2.63;2.20;;;;;;;16.03;63.19;93893.66;4948391;28;20027;-70
2023/05/27 05:29:44;;;;;;;5.78;3.10;;;;;;;16.08;63.75;93912.16;4949862;28;20652;-71
2023/05/27 05:32:11;;;;;;;4.35;3.08;;;;;;;16.15;63.67;93909.66;4947764;28;20104;-72
2023/05/27 05:34:37;;;;;;;4.88;3.40;;;;;;;16.25;64.28;93921.78;4942072;28;20036;-71
2023/05/27 05:37:03;;;;;;;4.68;3.20;;;;;;;16.26;64.20;93913.38;4931695;28;20042;-71
2023/05/27 05:39:28;;;;;;;4.70;3.20;;;;;;;16.27;63.90;93908.78;4948376;28;20026;-70
2023/05/27 05:41:54;;;;;;;5.50;3.03;;;;;;;16.46;63.07;93916.19;4949872;28;20039;-72
2023/05/27 05:44:21;;;;;;;4.35;2.83;;;;;;;16.37;64.14;93919.03;4946338;28;20045;-70
2023/05/27 05:46:46;;;;;;;2.92;2.60;;;;;;;16.38;64.86;93925.19;4947939;28;20590;-71
2023/05/27 05:49:12;;;;;;;5.28;2.60;;;;;;;16.57;62.04;93918.00;4946187;28;20051;-71
2023/05/27 05:51:37;;;;;;;2.22;2.03;;;;;;;16.37;62.94;93919.03;4950259;28;20493;-71
2023/05/27 05:54:02;;;;;;;2.58;2.15;;;;;;;16.33;62.34;93912.78;4946687;28;20065;-73
2023/05/27 05:56:28;;;;;;;2.67;2.10;;;;;;;16.51;61.90;93915.91;4950487;28;20785;-72
2023/05/27 05:58:53;;;;;;;2.20;1.98;;;;;;;16.44;61.64;93913.06;4946371;28;20630;-73
2023/05/27 06:01:19;;;;;;;3.13;2.20;;;;;;;16.44;62.75;93918.41;4944183;28;20043;-72
2023/05/27 06:03:44;;;;;;;2.58;2.38;;;;;;;16.45;63.34;93931.50;4947728;28;20104;-71
2023/05/27 06:06:10;;;;;;;4.28;3.10;;;;;;;16.54;63.19;93928.63;4952534;28;20380;-72
2023/05/27 06:08:35;;;;;;;4.15;3.40;;;;;;;16.65;62.46;93935.03;4947767;28;20082;-72
2023/05/27 06:11:01;;;;;;;3.97;3.13;;;;;;;16.77;61.93;93943.00;4938732;28;20090;-73
2023/05/27 06:13:26;;;;;;;7.35;4.35;;;;;;;16.59;62.24;93931.84;4954107;28;20134;-72
2023/05/27 06:15:52;;;;;;;6.22;3.65;;;;;;;16.49;61.24;93891.31;4949888;28;20082;-71
2023/05/27 06:18:17;;;;;;;5.85;3.17;;;;;;;16.53;61.72;93922.47;4953561;28;20090;-71
2023/05/27 06:20:43;;;;;;;3.65;3.22;;;;;;;16.65;62.49;93937.72;4950595;28;20549;-71
2023/05/27 06:23:08;;;;;;;4.15;3.65;;;;;;;16.74;61.87;93939.13;4953101;28;20065;-72
2023/05/27 06:25:34;;;;;;;6.28;3.50;;;;;;;16.70;62.21;93934.78;4948490;28;20062;-72
2023/05/27 06:27:59;;;;;;;3.67;3.25;;;;;;;16.74;62.07;93936.41;4952455;28;20848;-72
2023/05/27 06:30:25;;;;;;;5.25;3.90;;;;;;;16.90;61.46;93941.78;4952803;28;20106;-72
2023/05/27 06:32:51;;;;;;;6.93;3.67;;;;;;;16.91;61.67;93943.34;4950203;28;20117;-72
2023/05/27 06:35:16;;;;;;;6.20;4.20;;;;;;;16.89;61.47;93937.53;4951488;28;20500;-72
2023/05/27 06:37:41;;;;;;;7.75;4.30;;;;;;;16.95;60.38;93935.34;4949089;28;20070;-72
2023/05/27 06:40:07;;;;;;;9.18;4.60;;;;;;;17.10;60.35;93943.38;4954583;28;20035;-72
2023/05/27 06:42:33;;;;;;;6.10;4.13;;;;;;;16.94;60.74;93931.88;4949878;28;20027;-72
2023/05/27 06:44:58;;;;;;;5.65;4.15;;;;;;;16.93;62.06;93949.13;4950735;28;20072;-72
2023/05/27 06:47:23;;;;;;;6.93;4.63;;;;;;;16.81;62.10;93956.53;4944555;28;20438;-72
2023/05/27 06:49:49;;;;;;;4.97;4.47;;;;;;;16.73;62.72;93939.44;4941270;28;20435;-73
2023/05/27 06:52:14;;;;;;;5.18;4.18;;;;;;;16.81;61.74;93933.13;4949247;28;20425;-72
2023/05/27 06:54:40;;;;;;;6.25;3.63;;;;;;;16.70;59.77;93937.47;4949644;28;20500;-71
2023/05/27 06:57:05;;;;;;;5.07;3.50;;;;;;;16.86;59.33;93959.72;4950251;28;20598;-71
2023/05/27 06:59:31;;;;;;;5.78;3.92;;;;;;;16.87;59.68;93947.84;4950332;28;20105;-71
2023/05/27 07:01:56;;;;;;;4.18;3.30;;;;;;;17.09;59.26;93955.25;4951277;28;20043;-72
2023/05/27 07:04:22;;;;;;;5.88;4.05;;;;;;;16.95;59.49;93944.19;4948925;28;20140;-71
2023/05/27 07:06:47;;;;;;;6.57;4.28;;;;;;;17.13;59.36;93961.53;4951242;28;20034;-73
2023/05/27 07:09:13;;;;;;;12.25;5.20;;;;;;;17.15;60.57;93967.34;4949983;28;20521;-71
2023/05/27 07:11:39;;;;;;;9.00;5.00;;;;;;;17.12;60.26;93953.75;4952007;28;20383;-72
2023/05/27 07:14:05;;;;;;;9.38;4.78;;;;;;;17.12;59.57;93948.41;4948012;28;20043;-72
2023/05/27 07:16:30;;;;;;;7.57;5.05;;;;;;;17.39;59.33;93968.22;4950156;28;20043;-72
2023/05/27 07:18:56;;;;;;;6.88;4.85;;;;;;;17.33;59.34;93958.88;4950505;28;20031;-73
2023/05/27 07:21:21;;;;;;;11.30;5.88;;;;;;;17.33;58.59;93964.25;4950723;28;20086;-72
2023/05/27 07:23:47;;;;;;;8.55;5.78;;;;;;;17.27;59.39;93965.63;4949901;28;20098;-72
2023/05/27 07:26:12;;;;;;;13.30;5.82;;;;;;;17.42;60.10;93962.91;4952292;28;20134;-72
2023/05/27 07:28:37;;;;;;;9.48;5.15;;;;;;;17.57;58.33;93950.53;4949432;28;20079;-72
2023/05/27 07:31:03;;;;;;;8.75;5.13;;;;;;;17.37;59.57;93954.34;4951223;28;20711;-72
2023/05/27 07:33:29;;;;;;;10.57;6.18;;;;;;;17.44;60.40;93971.41;4949337;28;20028;-72
2023/05/27 07:35:54;;;;;;;8.18;5.28;;;;;;;17.46;60.02;93962.97;4950596;28;20075;-72
2023/05/27 07:38:20;;;;;;;11.45;5.65;;;;;;;17.61;58.01;93957.53;4948734;28;20090;-73
2023/05/27 07:40:45;;;;;;;12.55;6.00;;;;;;;17.54;58.49;93960.09;4948073;28;20139;-72
2023/05/27 07:43:10;;;;;;;7.88;5.60;;;;;;;17.59;59.24;93962.50;4947215;28;20533;-74
2023/05/27 07:45:36;;;;;;;9.07;5.72;;;;;;;17.66;60.80;93961.88;4948062;28;20023;-73
2023/05/27 07:48:01;;;;;;;12.40;6.57;;;;;;;17.67;59.83;93963.44;4950815;28;20083;-74
2023/05/27 07:50:27;;;;;;;7.68;5.43;;;;;;;17.47;59.09;93949.19;4948422;28;20134;-71
2023/05/27 07:52:52;;;;;;;8.75;5.25;;;;;;;17.60;58.13;93972.13;4949223;28;20117;-72
2023/05/27 07:55:18;;;;;;;13.48;6.05;;;;;;;17.63;58.55;93961.78;4947956;28;20043;-71
2023/05/27 07:57:43;;;;;;;13.52;5.72;;;;;;;17.40;60.00;93970.56;4950203;28;20073;-70
2023/05/27 08:00:09;;;;;;;7.90;4.55;;;;;;;17.35;59.02;93972.75;4951752;28;20039;-70
2023/05/27 08:02:35;;;;;;;5.07;4.10;;;;;;;17.29;58.36;93966.06;4951961;28;20054;-72
2023/05/27 08:05:00;;;;;;;7.60;4.40;;;;;;;17.41;56.91;93974.78;4957522;28;20057;-72
2023/05/27 08:07:26;;;;;;;5.45;4.22;;;;;;;17.40;56.53;93975.94;4948258;28;20042;-73
2023/05/27 08:09:51;;;;;;;11.48;4.75;;;;;;;17.56;56.50;93983.94;4951147;28;20031;-72
2023/05/27 08:12:17;;;;;;;7.63;4.57;;;;;;;17.40;57.21;93977.84;4947791;28;20528;-73
2023/05/27 08:14:43;;;;;;;5.97;3.85;;;;;;;17.27;58.87;93981.75;4950063;28;20043;-73
2023/05/27 08:17:08;;;;;;;9.90;5.35;;;;;;;16.86;62.31;93967.00;4949840;28;20042;-73
2023/05/27 08:19:33;;;;;;;5.50;4.00;;;;;;;16.60;60.21;93946.06;4950304;28;20117;-71
2023/05/27 08:21:59;;;;;;;5.53;3.72;;;;;;;16.90;60.06;93971.31;4948927;28;20034;-71
2023/05/27 08:24:24;;;;;;;5.65;4.50;;;;;;;17.00;60.22;93961.97;4950606;28;20039;-71
2023/05/27 08:26:50;;;;;;;3.88;3.42;;;;;;;17.00;59.62;93961.97;4949288;28;20046;-71
2023/05/27 08:29:16;;;;;;;4.47;4.07;;;;;;;17.10;59.45;93956.81;4949957;28;20872;-72
2023/05/27 08:31:41;;;;;;;5.03;3.35;;;;;;;17.27;58.70;93974.47;4949517;28;20039;-71
2023/05/27 08:34:06;;;;;;;4.82;3.72;;;;;;;17.33;58.72;93983.06;4950019;28;20035;-73
2023/05/27 08:36:32;;;;;;;5.20;4.10;;;;;;;16.99;59.13;93971.13;4948457;28;20061;-72
2023/05/27 08:38:59;;;;;;;4.97;3.50;;;;;;;16.92;58.80;93979.81;4951757;28;20035;-72
2023/05/27 08:41:27;;;;;;;8.80;4.30;;;;;;;16.61;58.18;93983.31;4948017;28;20050;-71
2023/05/27 08:43:52;;;;;;;5.10;4.60;;;;;;;16.07;60.44;93979.56;4949249;28;20226;-71
2023/05/27 08:46:18;;;;;;;10.93;4.70;;;;;;;16.74;59.18;93981.31;4950267;28;20538;-74
2023/05/27 08:48:44;;;;;;;5.90;3.85;;;;;;;17.04;58.30;93977.03;4950895;28;20049;-72
2023/05/27 08:51:10;;;;;;;7.63;4.75;;;;;;;17.08;57.45;93979.78;4948518;28;20035;-72
2023/05/27 08:53:36;;;;;;;6.00;4.20;;;;;;;17.11;56.46;93971.78;4960343;28;20035;-73
2023/05/27 08:56:03;;;;;;;4.65;4.18;;;;;;;16.90;56.79;93963.28;4947160;28;20045;-71
2023/05/27 08:58:28;;;;;;;4.35;3.95;;;;;;;17.06;57.28;93955.94;4947569;28;20683;-72
2023/05/27 09:00:55;;;;;;;5.32;4.00;;;;;;;17.04;58.20;93960.91;4934899;28;21183;-72
2023/05/27 09:03:22;;;;;;;5.70;4.72;;;;;;;17.09;57.06;93957.94;4948969;28;20026;-72
2023/05/27 09:05:48;;;;;;;5.95;4.32;;;;;;;16.83;56.93;93963.09;4945923;28;20038;-71
2023/05/27 09:08:13;;;;;;;6.30;4.95;;;;;;;16.69;57.08;93965.44;4946451;28;20398;-72
2023/05/27 09:10:41;;;;;;;6.00;4.80;;;;;;;16.82;57.09;93966.91;4945431;28;20031;-74
2023/05/27 09:13:07;;;;;;;7.88;5.03;;;;;;;16.81;57.82;93953.84;4949531;28;20563;-72
2023/05/27 09:15:33;;;;;;;7.35;4.65;;;;;;;16.92;57.37;93962.91;4945384;28;20624;-70
2023/05/27 09:17:59;;;;;;;5.40;4.90;;;;;;;17.07;56.95;93962.09;4946920;28;20031;-73
2023/05/27 09:20:26;;;;;;;5.32;4.35;;;;;;;16.92;57.28;93963.69;4954527;28;20482;-72
2023/05/27 09:22:57;;;;;;;6.40;5.05;;;;;;;17.02;57.49;93963.16;4947652;28;20519;-73
2023/05/27 09:25:24;;;;;;;7.75;5.50;;;;;;;16.89;57.23;93971.66;4945951;28;20039;-71
2023/05/27 09:27:49;;;;;;;6.63;5.65;;;;;;;16.96;55.31;93951.13;4947316;28;20031;-73
2023/05/27 09:30:18;;;;;;;7.65;4.60;;;;;;;16.93;56.74;93956.41;4950133;28;20034;-71
2023/05/27 09:32:44;;;;;;;6.72;5.05;;;;;;;17.16;56.32;93960.03;4947247;28;20169;-72
2023/05/27 09:35:11;;;;;;;6.07;4.95;;;;;;;17.18;57.00;93957.78;4948669;28;20468;-71
2023/05/27 09:37:37;;;;;;;7.25;5.70;;;;;;;16.99;56.82;93950.44;4947603;28;20043;-72
2023/05/27 09:40:14;;;;;;;8.23;5.35;;;;;;;17.30;55.96;93957.69;4948162;28;20572;-72
2023/05/27 09:42:47;;;;;;;9.43;5.68;;;;;;;17.02;56.66;93952.41;4939666;28;20511;-71
2023/05/27 09:45:18;;;;;;;6.30;5.40;;;;;;;16.90;57.22;93947.16;4948796;28;20031;-71
2023/05/27 09:47:54;;;;;;;6.15;5.15;;;;;;;17.08;57.12;93948.31;4948311;28;20097;-71
2023/05/27 09:50:21;;;;;;;8.40;5.05;;;;;;;17.10;56.62;93940.69;4945686;28;20032;-73
2023/05/27 09:52:47;;;;;;;7.82;5.38;;;;;;;16.85;57.47;93933.22;4948401;28;20066;-72
2023/05/27 09:55:14;;;;;;;7.30;4.55;;;;;;;16.93;57.66;93935.69;4949227;28;20046;-71
2023/05/27 09:57:40;;;;;;;6.70;5.30;;;;;;;17.06;57.87;93934.44;4949407;28;20030;-73
2023/05/27 10:00:17;;;;;;;8.73;5.80;;;;;;;17.25;57.49;93938.34;4949303;28;20521;-71
2023/05/27 10:02:46;;;;;;;9.00;5.97;;;;;;;17.17;57.61;93951.63;4961906;28;20097;-70
2023/05/27 10:05:14;;;;;;;7.43;5.65;;;;;;;17.46;57.19;93949.53;4948970;28;20039;-74
2023/05/27 10:07:41;;;;;;;6.72;6.03;;;;;;;17.70;56.72;93954.63;4949474;28;20040;-69
2023/05/27 10:10:08;;;;;;;6.85;5.38;;;;;;;17.49;55.29;93946.16;4961818;28;20038;-73
2023/05/27 10:12:35;;;;;;;7.32;5.70;;;;;;;17.73;55.81;93939.72;4946786;28;20047;-74
2023/05/27 10:15:01;;;;;;;6.28;5.45;;;;;;;17.76;56.98;93936.31;4945701;28;20047;-72
2023/05/27 10:17:26;;;;;;;6.13;5.53;;;;;;;17.94;53.95;93940.91;4940670;28;20038;-74
2023/05/27 10:19:58;;;;;;;6.43;5.32;;;;;;;17.41;56.00;93933.69;4949124;28;20054;-72
2023/05/27 10:22:23;;;;;;;6.32;5.40;;;;;;;17.45;58.59;93937.25;4950326;28;20203;-71
2023/05/27 10:24:50;;;;;;;7.05;5.70;;;;;;;17.30;59.96;93943.44;4947292;28;20042;-71
2023/05/27 10:27:16;;;;;;;9.05;6.55;;;;;;;17.16;57.80;93933.16;4943251;28;20039;-72
2023/05/27 10:29:41;;;;;;;9.73;5.68;;;;;;;17.69;57.48;93928.13;4943325;28;20521;-72
2023/05/27 10:32:07;;;;;;;8.20;5.55;;;;;;;17.64;56.22;93925.72;4947355;28;20041;-73
2023/05/27 10:34:42;;;;;;;5.40;4.90;;;;;;;17.52;55.97;93919.34;4947688;28;20567;-73
2023/05/27 10:37:07;;;;;;;8.82;6.55;;;;;;;17.12;58.21;93930.38;4947593;28;20034;-72
2023/05/27 10:39:33;;;;;;;14.25;7.18;;;;;;;17.21;58.17;93919.44;4948146;28;20066;-72
2023/05/27 10:41:59;;;;;;;13.27;6.13;;;;;;;17.02;57.96;93916.69;4946793;28;20047;-74
2023/05/27 10:44:28;;;;;;;9.98;6.53;;;;;;;17.24;57.77;93912.59;4946043;28;20051;-73
2023/05/27 10:47:01;;;;;;;7.05;6.28;;;;;;;17.11;57.06;93923.44;4945698;28;20382;-73
2023/05/27 10:49:35;;;;;;;9.73;6.00;;;;;;;17.16;57.95;93922.41;4950949;28;20042;-72
2023/05/27 10:52:15;;;;;;;11.77;7.38;;;;;;;16.67;59.62;93901.34;4952490;28;20941;-73
2023/05/27 10:54:52;;;;;;;6.28;5.68;;;;;;;17.23;56.30;93900.28;4966900;28;20081;-75
2023/05/27 10:57:17;;;;;;;5.80;5.20;;;;;;;17.22;57.12;93907.56;4965059;28;20054;-74
2023/05/27 10:59:58;;;;;;;7.90;5.75;;;;;;;17.13;57.48;93910.47;4963949;28;20035;-74
2023/05/27 11:02:24;;;;;;;8.35;6.45;;;;;;;16.79;58.38;93908.53;4955618;28;20043;-73
2023/05/27 11:04:50;;;;;;;9.02;5.80;;;;;;;17.02;57.53;93895.97;4955015;28;20097;-75
2023/05/27 11:07:19;;;;;;;11.45;8.15;;;;;;;17.29;56.84;93893.50;4957729;28;20110;-75
2023/05/27 11:09:46;;;;;;;8.65;7.70;;;;;;;17.39;56.86;93904.47;4958086;28;20053;-74
2023/05/27 11:12:16;;;;;;;10.23;6.28;;;;;;;17.25;57.51;93880.00;4956282;28;20054;-74
2023/05/27 11:14:42;;;;;;;8.80;6.60;;;;;;;16.75;57.53;93895.03;4956248;28;20560;-73
2023/05/27 11:17:12;;;;;;;11.15;6.82;;;;;;;16.35;57.20;93883.72;4954964;28;20031;-73
2023/05/27 11:19:42;;;;;;;8.15;5.97;;;;;;;16.55;57.44;93892.63;4956588;28;20046;-74
2023/05/27 11:22:08;;;;;;;9.93;5.78;;;;;;;16.26;58.96;93883.88;4956506;28;20046;-72
2023/05/27 11:24:36;;;;;;;7.00;6.07;;;;;;;16.74;59.15;93888.09;4958738;28;20042;-74
2023/05/27 11:27:12;;;;;;;8.05;6.57;;;;;;;16.75;58.36;93883.50;4954653;28;20316;-73
2023/05/27 11:29:38;;;;;;;10.82;7.40;;;;;;;16.75;59.26;93880.81;4965015;28;20180;-73